sensor_id;sensor_type;location;lat;lon;timestamp;P1;durP1;ratioP1;P2;durP2;ratioP2
6358;SDS011;3212;51.460;11.868;2023-04-25T00:00:55;7.53;;;5.10;;
6358;SDS011;3212;51.460;11.868;2023-04-25T00:04:18;9.50;;;5.17;;
6358;SDS011;3212;51.460;11.868;2023-04-25T00:07:40;7.53;;;5.07;;
6358;SDS011;3212;51.460;11.868;2023-04-25T00:11:02;7.47;;;4.70;;
6358;SDS011;3212;51.460;11.868;2023-04-25T00:14:24;7.77;;;4.80;;
6358;SDS011;3212;51.460;11.868;2023-04-25T00:17:46;7.90;;;5.27;;
6358;SDS011;3212;51.460;11.868;2023-04-25T00:21:08;6.63;;;4.60;;
6358;SDS011;3212;51.460;11.868;2023-04-25T00:24:31;9.17;;;4.43;;
6358;SDS011;3212;51.460;11.868;2023-04-25T00:27:54;7.40;;;5.00;;
6358;SDS011;3212;51.460;11.868;2023-04-25T00:31:16;8.83;;;4.60;;
6358;SDS011;3212;51.460;11.868;2023-04-25T00:34:38;8.10;;;4.47;;
6358;SDS011;3212;51.460;11.868;2023-04-25T00:38:00;7.00;;;4.77;;
6358;SDS011;3212;51.460;11.868;2023-04-25T00:41:22;6.57;;;4.50;;
6358;SDS011;3212;51.460;11.868;2023-04-25T00:44:44;7.07;;;4.43;;
6358;SDS011;3212;51.460;11.868;2023-04-25T00:48:06;8.40;;;4.15;;
6358;SDS011;3212;51.460;11.868;2023-04-25T00:51:28;7.37;;;4.63;;
6358;SDS011;3212;51.460;11.868;2023-04-25T00:54:51;8.47;;;4.70;;
6358;SDS011;3212;51.460;11.868;2023-04-25T00:58:13;7.70;;;4.90;;
6358;SDS011;3212;51.460;11.868;2023-04-25T01:01:34;8.10;;;4.80;;
6358;SDS011;3212;51.460;11.868;2023-04-25T01:04:57;7.07;;;4.73;;
6358;SDS011;3212;51.460;11.868;2023-04-25T01:08:19;9.70;;;4.60;;
6358;SDS011;3212;51.460;11.868;2023-04-25T01:11:41;7.33;;;4.67;;
6358;SDS011;3212;51.460;11.868;2023-04-25T01:15:04;12.43;;;4.77;;
6358;SDS011;3212;51.460;11.868;2023-04-25T01:18:27;8.00;;;4.60;;
6358;SDS011;3212;51.460;11.868;2023-04-25T01:21:50;8.43;;;5.30;;
6358;SDS011;3212;51.460;11.868;2023-04-25T01:25:12;7.50;;;4.80;;
6358;SDS011;3212;51.460;11.868;2023-04-25T01:28:36;6.77;;;4.20;;
6358;SDS011;3212;51.460;11.868;2023-04-25T01:31:58;6.73;;;4.37;;
6358;SDS011;3212;51.460;11.868;2023-04-25T01:35:19;9.80;;;4.60;;
6358;SDS011;3212;51.460;11.868;2023-04-25T01:38:41;6.33;;;4.00;;
6358;SDS011;3212;51.460;11.868;2023-04-25T01:42:03;7.13;;;4.33;;
6358;SDS011;3212;51.460;11.868;2023-04-25T01:45:26;6.00;;;4.27;;
6358;SDS011;3212;51.460;11.868;2023-04-25T01:48:48;7.23;;;3.70;;
6358;SDS011;3212;51.460;11.868;2023-04-25T01:52:10;7.00;;;3.50;;
6358;SDS011;3212;51.460;11.868;2023-04-25T01:55:32;8.90;;;3.73;;
6358;SDS011;3212;51.460;11.868;2023-04-25T01:58:54;9.57;;;4.50;;
6358;SDS011;3212;51.460;11.868;2023-04-25T02:02:16;12.10;;;3.77;;
6358;SDS011;3212;51.460;11.868;2023-04-25T02:05:39;6.17;;;3.60;;
6358;SDS011;3212;51.460;11.868;2023-04-25T02:09:00;7.30;;;3.40;;
6358;SDS011;3212;51.460;11.868;2023-04-25T02:12:22;5.83;;;3.47;;
6358;SDS011;3212;51.460;11.868;2023-04-25T02:15:45;7.45;;;3.58;;
6358;SDS011;3212;51.460;11.868;2023-04-25T02:19:07;8.80;;;3.47;;
6358;SDS011;3212;51.460;11.868;2023-04-25T02:22:29;6.40;;;3.47;;
6358;SDS011;3212;51.460;11.868;2023-04-25T02:25:52;10.80;;;3.80;;
6358;SDS011;3212;51.460;11.868;2023-04-25T02:29:17;8.90;;;3.40;;
6358;SDS011;3212;51.460;11.868;2023-04-25T02:32:39;8.27;;;3.20;;
6358;SDS011;3212;51.460;11.868;2023-04-25T02:36:01;7.10;;;3.57;;
6358;SDS011;3212;51.460;11.868;2023-04-25T02:39:23;9.02;;;4.05;;
6358;SDS011;3212;51.460;11.868;2023-04-25T02:42:45;11.60;;;3.80;;
6358;SDS011;3212;51.460;11.868;2023-04-25T02:46:07;5.83;;;3.40;;
6358;SDS011;3212;51.460;11.868;2023-04-25T02:49:29;6.77;;;3.30;;
6358;SDS011;3212;51.460;11.868;2023-04-25T02:52:50;7.33;;;3.77;;
6358;SDS011;3212;51.460;11.868;2023-04-25T02:56:12;7.23;;;3.47;;
6358;SDS011;3212;51.460;11.868;2023-04-25T02:59:35;7.37;;;3.37;;
6358;SDS011;3212;51.460;11.868;2023-04-25T03:02:57;7.73;;;3.33;;
6358;SDS011;3212;51.460;11.868;2023-04-25T03:06:19;5.33;;;3.70;;
6358;SDS011;3212;51.460;11.868;2023-04-25T03:09:40;5.43;;;3.23;;
6358;SDS011;3212;51.460;11.868;2023-04-25T03:13:02;9.90;;;3.60;;
6358;SDS011;3212;51.460;11.868;2023-04-25T03:16:24;6.77;;;3.60;;
6358;SDS011;3212;51.460;11.868;2023-04-25T03:19:46;8.90;;;4.20;;
6358;SDS011;3212;51.460;11.868;2023-04-25T03:23:08;6.10;;;3.90;;
6358;SDS011;3212;51.460;11.868;2023-04-25T03:26:30;8.67;;;4.03;;
6358;SDS011;3212;51.460;11.868;2023-04-25T03:29:54;6.77;;;3.93;;
6358;SDS011;3212;51.460;11.868;2023-04-25T03:33:16;6.97;;;3.90;;
6358;SDS011;3212;51.460;11.868;2023-04-25T03:36:38;5.63;;;3.97;;
6358;SDS011;3212;51.460;11.868;2023-04-25T03:40:00;9.27;;;4.10;;
6358;SDS011;3212;51.460;11.868;2023-04-25T03:43:22;9.43;;;3.90;;
6358;SDS011;3212;51.460;11.868;2023-04-25T03:46:44;11.50;;;4.30;;
6358;SDS011;3212;51.460;11.868;2023-04-25T03:50:06;9.43;;;4.30;;
6358;SDS011;3212;51.460;11.868;2023-04-25T03:53:28;8.93;;;3.87;;
6358;SDS011;3212;51.460;11.868;2023-04-25T03:56:50;8.77;;;5.20;;
6358;SDS011;3212;51.460;11.868;2023-04-25T04:00:13;8.07;;;3.70;;
6358;SDS011;3212;51.460;11.868;2023-04-25T04:03:35;14.30;;;4.20;;
6358;SDS011;3212;51.460;11.868;2023-04-25T04:06:57;8.20;;;4.13;;
6358;SDS011;3212;51.460;11.868;2023-04-25T04:10:19;11.10;;;4.67;;
6358;SDS011;3212;51.460;11.868;2023-04-25T04:13:41;11.13;;;4.80;;
6358;SDS011;3212;51.460;11.868;2023-04-25T04:17:03;10.07;;;5.30;;
6358;SDS011;3212;51.460;11.868;2023-04-25T04:20:25;9.67;;;4.67;;
6358;SDS011;3212;51.460;11.868;2023-04-25T04:23:47;11.77;;;4.80;;
6358;SDS011;3212;51.460;11.868;2023-04-25T04:27:10;10.30;;;4.60;;
6358;SDS011;3212;51.460;11.868;2023-04-25T04:30:33;9.20;;;4.80;;
6358;SDS011;3212;51.460;11.868;2023-04-25T04:33:55;13.67;;;5.33;;
6358;SDS011;3212;51.460;11.868;2023-04-25T04:37:17;10.93;;;5.43;;
6358;SDS011;3212;51.460;11.868;2023-04-25T04:40:39;11.80;;;4.85;;
6358;SDS011;3212;51.460;11.868;2023-04-25T04:44:00;9.10;;;5.45;;
6358;SDS011;3212;51.460;11.868;2023-04-25T04:47:22;12.70;;;5.20;;
6358;SDS011;3212;51.460;11.868;2023-04-25T04:50:44;8.73;;;5.20;;
6358;SDS011;3212;51.460;11.868;2023-04-25T04:54:07;13.53;;;6.50;;
6358;SDS011;3212;51.460;11.868;2023-04-25T04:57:29;16.17;;;6.00;;
6358;SDS011;3212;51.460;11.868;2023-04-25T05:00:50;11.80;;;5.90;;
6358;SDS011;3212;51.460;11.868;2023-04-25T05:04:12;14.43;;;6.30;;
6358;SDS011;3212;51.460;11.868;2023-04-25T05:07:40;12.50;;;6.10;;
6358;SDS011;3212;51.460;11.868;2023-04-25T05:11:02;13.80;;;7.10;;
6358;SDS011;3212;51.460;11.868;2023-04-25T05:14:25;11.83;;;5.80;;
6358;SDS011;3212;51.460;11.868;2023-04-25T05:17:50;12.57;;;6.30;;
6358;SDS011;3212;51.460;11.868;2023-04-25T05:21:11;11.80;;;6.33;;
6358;SDS011;3212;51.460;11.868;2023-04-25T05:24:33;12.10;;;6.30;;
6358;SDS011;3212;51.460;11.868;2023-04-25T05:27:57;10.53;;;5.83;;
6358;SDS011;3212;51.460;11.868;2023-04-25T05:31:19;11.13;;;5.63;;
6358;SDS011;3212;51.460;11.868;2023-04-25T05:34:41;13.23;;;5.70;;
6358;SDS011;3212;51.460;11.868;2023-04-25T05:38:03;15.93;;;6.20;;
6358;SDS011;3212;51.460;11.868;2023-04-25T05:41:25;10.00;;;6.13;;
6358;SDS011;3212;51.460;11.868;2023-04-25T05:44:46;12.47;;;6.00;;
6358;SDS011;3212;51.460;11.868;2023-04-25T05:48:08;10.73;;;5.70;;
6358;SDS011;3212;51.460;11.868;2023-04-25T05:51:31;11.97;;;5.40;;
6358;SDS011;3212;51.460;11.868;2023-04-25T05:54:55;10.57;;;5.30;;
6358;SDS011;3212;51.460;11.868;2023-04-25T05:58:19;12.63;;;5.80;;
6358;SDS011;3212;51.460;11.868;2023-04-25T06:01:42;13.43;;;6.27;;
6358;SDS011;3212;51.460;11.868;2023-04-25T06:05:04;12.50;;;6.57;;
6358;SDS011;3212;51.460;11.868;2023-04-25T06:08:26;14.13;;;6.03;;
6358;SDS011;3212;51.460;11.868;2023-04-25T06:11:48;14.70;;;6.47;;
6358;SDS011;3212;51.460;11.868;2023-04-25T06:15:10;12.47;;;6.30;;
6358;SDS011;3212;51.460;11.868;2023-04-25T06:18:31;11.80;;;7.03;;
6358;SDS011;3212;51.460;11.868;2023-04-25T06:21:53;12.23;;;6.17;;
6358;SDS011;3212;51.460;11.868;2023-04-25T06:25:15;11.83;;;5.93;;
6358;SDS011;3212;51.460;11.868;2023-04-25T06:28:37;12.50;;;6.93;;
6358;SDS011;3212;51.460;11.868;2023-04-25T06:31:59;15.50;;;7.00;;
6358;SDS011;3212;51.460;11.868;2023-04-25T06:35:21;10.33;;;6.30;;
6358;SDS011;3212;51.460;11.868;2023-04-25T06:38:43;10.23;;;6.00;;
6358;SDS011;3212;51.460;11.868;2023-04-25T06:42:05;11.17;;;5.80;;
6358;SDS011;3212;51.460;11.868;2023-04-25T06:45:27;11.07;;;6.17;;
6358;SDS011;3212;51.460;11.868;2023-04-25T06:48:49;11.50;;;6.33;;
6358;SDS011;3212;51.460;11.868;2023-04-25T06:52:11;12.70;;;6.23;;
6358;SDS011;3212;51.460;11.868;2023-04-25T06:55:33;10.97;;;6.33;;
6358;SDS011;3212;51.460;11.868;2023-04-25T06:58:56;12.30;;;6.30;;
6358;SDS011;3212;51.460;11.868;2023-04-25T07:02:19;13.13;;;6.40;;
6358;SDS011;3212;51.460;11.868;2023-04-25T07:05:41;3.33;;;2.77;;
6358;SDS011;3212;51.460;11.868;2023-04-25T07:09:04;4.20;;;2.30;;
6358;SDS011;3212;51.460;11.868;2023-04-25T07:12:27;5.90;;;2.63;;
6358;SDS011;3212;51.460;11.868;2023-04-25T07:15:49;4.67;;;2.30;;
6358;SDS011;3212;51.460;11.868;2023-04-25T07:19:12;5.00;;;2.40;;
6358;SDS011;3212;51.460;11.868;2023-04-25T07:22:34;4.13;;;2.10;;
6358;SDS011;3212;51.460;11.868;2023-04-25T07:25:57;3.77;;;1.90;;
6358;SDS011;3212;51.460;11.868;2023-04-25T07:29:19;9.40;;;3.00;;
6358;SDS011;3212;51.460;11.868;2023-04-25T07:32:41;8.43;;;2.17;;
6358;SDS011;3212;51.460;11.868;2023-04-25T07:36:03;9.63;;;2.67;;
6358;SDS011;3212;51.460;11.868;2023-04-25T07:39:25;7.57;;;2.20;;
6358;SDS011;3212;51.460;11.868;2023-04-25T07:42:46;5.77;;;2.87;;
6358;SDS011;3212;51.460;11.868;2023-04-25T07:46:08;13.40;;;2.30;;
6358;SDS011;3212;51.460;11.868;2023-04-25T07:49:31;5.33;;;2.10;;
6358;SDS011;3212;51.460;11.868;2023-04-25T07:52:53;6.20;;;2.47;;
6358;SDS011;3212;51.460;11.868;2023-04-25T07:56:15;4.33;;;1.80;;
6358;SDS011;3212;51.460;11.868;2023-04-25T07:59:38;3.63;;;2.20;;
6358;SDS011;3212;51.460;11.868;2023-04-25T08:03:01;8.87;;;2.40;;
6358;SDS011;3212;51.460;11.868;2023-04-25T08:06:23;4.63;;;1.80;;
6358;SDS011;3212;51.460;11.868;2023-04-25T08:09:44;10.00;;;2.87;;
6358;SDS011;3212;51.460;11.868;2023-04-25T08:13:06;10.73;;;2.57;;
6358;SDS011;3212;51.460;11.868;2023-04-25T08:16:28;7.10;;;2.50;;
6358;SDS011;3212;51.460;11.868;2023-04-25T08:19:50;8.37;;;2.80;;
6358;SDS011;3212;51.460;11.868;2023-04-25T08:23:12;8.40;;;2.60;;
6358;SDS011;3212;51.460;11.868;2023-04-25T08:26:34;5.30;;;2.37;;
6358;SDS011;3212;51.460;11.868;2023-04-25T08:29:55;7.53;;;3.40;;
6358;SDS011;3212;51.460;11.868;2023-04-25T08:33:17;10.13;;;3.40;;
6358;SDS011;3212;51.460;11.868;2023-04-25T08:36:39;7.13;;;3.40;;
6358;SDS011;3212;51.460;11.868;2023-04-25T08:40:01;8.60;;;3.67;;
6358;SDS011;3212;51.460;11.868;2023-04-25T08:43:23;16.10;;;4.20;;
6358;SDS011;3212;51.460;11.868;2023-04-25T08:46:45;11.43;;;4.20;;
6358;SDS011;3212;51.460;11.868;2023-04-25T08:50:07;12.53;;;4.70;;
6358;SDS011;3212;51.460;11.868;2023-04-25T08:53:31;6.75;;;4.00;;
6358;SDS011;3212;51.460;11.868;2023-04-25T08:56:52;11.03;;;4.30;;
6358;SDS011;3212;51.460;11.868;2023-04-25T09:00:14;13.13;;;4.50;;
6358;SDS011;3212;51.460;11.868;2023-04-25T09:03:36;8.85;;;4.72;;
6358;SDS011;3212;51.460;11.868;2023-04-25T09:06:58;9.83;;;5.60;;
6358;SDS011;3212;51.460;11.868;2023-04-25T09:10:25;10.00;;;5.40;;
6358;SDS011;3212;51.460;11.868;2023-04-25T09:13:47;10.93;;;5.00;;
6358;SDS011;3212;51.460;11.868;2023-04-25T09:17:09;11.10;;;5.10;;
6358;SDS011;3212;51.460;11.868;2023-04-25T09:20:30;9.87;;;5.00;;
6358;SDS011;3212;51.460;11.868;2023-04-25T09:23:53;11.07;;;4.37;;
6358;SDS011;3212;51.460;11.868;2023-04-25T09:27:18;15.70;;;5.60;;
6358;SDS011;3212;51.460;11.868;2023-04-25T09:30:41;8.50;;;4.90;;
6358;SDS011;3212;51.460;11.868;2023-04-25T09:34:03;8.97;;;3.70;;
6358;SDS011;3212;51.460;11.868;2023-04-25T09:37:27;11.60;;;3.40;;
6358;SDS011;3212;51.460;11.868;2023-04-25T09:40:48;5.73;;;3.30;;
6358;SDS011;3212;51.460;11.868;2023-04-25T09:44:12;10.57;;;3.23;;
6358;SDS011;3212;51.460;11.868;2023-04-25T09:47:36;6.77;;;3.00;;
6358;SDS011;3212;51.460;11.868;2023-04-25T09:51:04;6.60;;;3.30;;
6358;SDS011;3212;51.460;11.868;2023-04-25T09:54:26;7.73;;;3.73;;
6358;SDS011;3212;51.460;11.868;2023-04-25T09:57:49;14.63;;;3.40;;
6358;SDS011;3212;51.460;11.868;2023-04-25T10:01:12;6.20;;;2.90;;
6358;SDS011;3212;51.460;11.868;2023-04-25T10:04:35;6.70;;;2.70;;
6358;SDS011;3212;51.460;11.868;2023-04-25T10:07:58;9.47;;;3.13;;
6358;SDS011;3212;51.460;11.868;2023-04-25T10:11:19;3.10;;;2.10;;
6358;SDS011;3212;51.460;11.868;2023-04-25T10:14:40;4.37;;;2.13;;
6358;SDS011;3212;51.460;11.868;2023-04-25T10:18:03;9.37;;;2.73;;
6358;SDS011;3212;51.460;11.868;2023-04-25T10:21:25;5.90;;;2.33;;
6358;SDS011;3212;51.460;11.868;2023-04-25T10:24:48;12.73;;;3.23;;
6358;SDS011;3212;51.460;11.868;2023-04-25T10:28:10;6.30;;;2.40;;
6358;SDS011;3212;51.460;11.868;2023-04-25T10:31:32;8.47;;;2.93;;
6358;SDS011;3212;51.460;11.868;2023-04-25T10:34:54;4.20;;;2.20;;
6358;SDS011;3212;51.460;11.868;2023-04-25T10:38:16;4.87;;;2.30;;
6358;SDS011;3212;51.460;11.868;2023-04-25T10:45:06;5.80;;;2.30;;
6358;SDS011;3212;51.460;11.868;2023-04-25T10:48:29;9.27;;;2.57;;
6358;SDS011;3212;51.460;11.868;2023-04-25T10:51:51;8.93;;;2.57;;
6358;SDS011;3212;51.460;11.868;2023-04-25T10:55:12;6.83;;;2.37;;
6358;SDS011;3212;51.460;11.868;2023-04-25T10:58:34;11.00;;;2.10;;
6358;SDS011;3212;51.460;11.868;2023-04-25T11:01:57;6.23;;;2.03;;
6358;SDS011;3212;51.460;11.868;2023-04-25T11:05:23;12.13;;;2.70;;
6358;SDS011;3212;51.460;11.868;2023-04-25T11:08:47;5.60;;;2.50;;
6358;SDS011;3212;51.460;11.868;2023-04-25T11:12:09;6.50;;;2.70;;
6358;SDS011;3212;51.460;11.868;2023-04-25T11:15:31;8.02;;;2.53;;
6358;SDS011;3212;51.460;11.868;2023-04-25T11:18:52;8.70;;;2.50;;
6358;SDS011;3212;51.460;11.868;2023-04-25T11:22:15;6.28;;;2.60;;
6358;SDS011;3212;51.460;11.868;2023-04-25T11:25:37;4.30;;;2.10;;
6358;SDS011;3212;51.460;11.868;2023-04-25T11:28:59;5.37;;;2.03;;
6358;SDS011;3212;51.460;11.868;2023-04-25T11:32:22;8.60;;;2.40;;
6358;SDS011;3212;51.460;11.868;2023-04-25T11:35:44;6.20;;;2.53;;
6358;SDS011;3212;51.460;11.868;2023-04-25T11:39:06;6.37;;;2.23;;
6358;SDS011;3212;51.460;11.868;2023-04-25T11:42:28;5.20;;;2.57;;
6358;SDS011;3212;51.460;11.868;2023-04-25T11:45:50;8.53;;;2.23;;
6358;SDS011;3212;51.460;11.868;2023-04-25T11:49:12;4.60;;;2.33;;
6358;SDS011;3212;51.460;11.868;2023-04-25T11:52:37;9.40;;;2.00;;
6358;SDS011;3212;51.460;11.868;2023-04-25T11:56:01;4.27;;;1.80;;
6358;SDS011;3212;51.460;11.868;2023-04-25T11:59:24;4.10;;;1.87;;
6358;SDS011;3212;51.460;11.868;2023-04-25T12:02:52;5.18;;;2.10;;
6358;SDS011;3212;51.460;11.868;2023-04-25T12:06:16;7.80;;;2.30;;
6358;SDS011;3212;51.460;11.868;2023-04-25T12:09:35;8.07;;;2.20;;
6358;SDS011;3212;51.460;11.868;2023-04-25T12:12:57;4.83;;;1.70;;
6358;SDS011;3212;51.460;11.868;2023-04-25T12:16:20;4.63;;;2.20;;
6358;SDS011;3212;51.460;11.868;2023-04-25T12:19:42;7.03;;;1.80;;
6358;SDS011;3212;51.460;11.868;2023-04-25T12:23:06;2.50;;;1.80;;
6358;SDS011;3212;51.460;11.868;2023-04-25T12:26:45;5.30;;;1.70;;
6358;SDS011;3212;51.460;11.868;2023-04-25T12:29:51;2.03;;;1.33;;
6358;SDS011;3212;51.460;11.868;2023-04-25T12:33:12;2.63;;;1.40;;
6358;SDS011;3212;51.460;11.868;2023-04-25T12:36:34;8.37;;;1.50;;
6358;SDS011;3212;51.460;11.868;2023-04-25T12:39:56;6.17;;;2.03;;
6358;SDS011;3212;51.460;11.868;2023-04-25T12:43:18;3.17;;;1.50;;
6358;SDS011;3212;51.460;11.868;2023-04-25T12:46:40;4.97;;;1.73;;
6358;SDS011;3212;51.460;11.868;2023-04-25T12:50:02;2.73;;;1.40;;
6358;SDS011;3212;51.460;11.868;2023-04-25T12:53:24;5.43;;;2.20;;
6358;SDS011;3212;51.460;11.868;2023-04-25T12:56:45;2.80;;;1.70;;
6358;SDS011;3212;51.460;11.868;2023-04-25T13:00:08;3.53;;;2.17;;
6358;SDS011;3212;51.460;11.868;2023-04-25T13:03:32;4.20;;;1.47;;
6358;SDS011;3212;51.460;11.868;2023-04-25T13:06:54;2.27;;;1.60;;
6358;SDS011;3212;51.460;11.868;2023-04-25T13:10:16;3.67;;;1.80;;
6358;SDS011;3212;51.460;11.868;2023-04-25T13:13:38;7.13;;;1.97;;
6358;SDS011;3212;51.460;11.868;2023-04-25T13:17:00;3.45;;;1.55;;
6358;SDS011;3212;51.460;11.868;2023-04-25T13:20:22;4.27;;;1.70;;
6358;SDS011;3212;51.460;11.868;2023-04-25T13:23:44;3.30;;;1.40;;
6358;SDS011;3212;51.460;11.868;2023-04-25T13:27:05;3.53;;;1.70;;
6358;SDS011;3212;51.460;11.868;2023-04-25T13:30:27;5.47;;;1.90;;
6358;SDS011;3212;51.460;11.868;2023-04-25T13:33:49;4.40;;;1.70;;
6358;SDS011;3212;51.460;11.868;2023-04-25T13:37:12;5.37;;;1.57;;
6358;SDS011;3212;51.460;11.868;2023-04-25T13:40:34;4.47;;;1.33;;
6358;SDS011;3212;51.460;11.868;2023-04-25T13:43:56;2.97;;;1.73;;
6358;SDS011;3212;51.460;11.868;2023-04-25T13:47:17;5.63;;;1.63;;
6358;SDS011;3212;51.460;11.868;2023-04-25T13:50:40;4.00;;;1.70;;
6358;SDS011;3212;51.460;11.868;2023-04-25T13:54:02;5.63;;;3.13;;
6358;SDS011;3212;51.460;11.868;2023-04-25T13:57:24;3.03;;;1.83;;
6358;SDS011;3212;51.460;11.868;2023-04-25T14:00:47;2.80;;;1.60;;
6358;SDS011;3212;51.460;11.868;2023-04-25T14:04:09;7.33;;;1.83;;
6358;SDS011;3212;51.460;11.868;2023-04-25T14:07:32;7.27;;;1.97;;
6358;SDS011;3212;51.460;11.868;2023-04-25T14:10:53;4.53;;;1.77;;
6358;SDS011;3212;51.460;11.868;2023-04-25T14:14:15;3.23;;;2.23;;
6358;SDS011;3212;51.460;11.868;2023-04-25T14:17:37;3.70;;;1.90;;
6358;SDS011;3212;51.460;11.868;2023-04-25T14:20:59;5.97;;;2.30;;
6358;SDS011;3212;51.460;11.868;2023-04-25T14:24:21;5.07;;;2.00;;
6358;SDS011;3212;51.460;11.868;2023-04-25T14:27:43;3.13;;;1.60;;
6358;SDS011;3212;51.460;11.868;2023-04-25T14:31:05;5.63;;;1.90;;
6358;SDS011;3212;51.460;11.868;2023-04-25T14:34:29;16.50;;;2.10;;
6358;SDS011;3212;51.460;11.868;2023-04-25T14:37:51;4.70;;;1.80;;
6358;SDS011;3212;51.460;11.868;2023-04-25T14:41:13;7.00;;;1.87;;
6358;SDS011;3212;51.460;11.868;2023-04-25T14:44:36;4.77;;;2.20;;
6358;SDS011;3212;51.460;11.868;2023-04-25T14:47:58;2.30;;;1.60;;
6358;SDS011;3212;51.460;11.868;2023-04-25T14:51:21;3.03;;;1.70;;
6358;SDS011;3212;51.460;11.868;2023-04-25T14:54:43;2.83;;;1.60;;
6358;SDS011;3212;51.460;11.868;2023-04-25T14:58:05;5.00;;;1.80;;
6358;SDS011;3212;51.460;11.868;2023-04-25T15:01:26;3.97;;;1.57;;
6358;SDS011;3212;51.460;11.868;2023-04-25T15:04:49;5.60;;;1.30;;
6358;SDS011;3212;51.460;11.868;2023-04-25T15:08:12;2.90;;;1.40;;
6358;SDS011;3212;51.460;11.868;2023-04-25T15:11:34;4.07;;;1.50;;
6358;SDS011;3212;51.460;11.868;2023-04-25T15:14:56;3.17;;;1.60;;
6358;SDS011;3212;51.460;11.868;2023-04-25T15:18:19;4.50;;;1.77;;
6358;SDS011;3212;51.460;11.868;2023-04-25T15:21:39;2.50;;;1.90;;
6358;SDS011;3212;51.460;11.868;2023-04-25T15:25:01;4.27;;;1.50;;
6358;SDS011;3212;51.460;11.868;2023-04-25T15:28:23;4.00;;;1.70;;
6358;SDS011;3212;51.460;11.868;2023-04-25T15:31:45;3.73;;;1.60;;
6358;SDS011;3212;51.460;11.868;2023-04-25T15:35:08;3.83;;;2.13;;
6358;SDS011;3212;51.460;11.868;2023-04-25T15:38:30;7.27;;;2.30;;
6358;SDS011;3212;51.460;11.868;2023-04-25T15:41:52;3.30;;;1.67;;
6358;SDS011;3212;51.460;11.868;2023-04-25T15:45:14;2.93;;;1.67;;
6358;SDS011;3212;51.460;11.868;2023-04-25T15:48:36;5.63;;;1.73;;
6358;SDS011;3212;51.460;11.868;2023-04-25T15:51:57;5.43;;;2.00;;
6358;SDS011;3212;51.460;11.868;2023-04-25T15:55:19;8.90;;;1.80;;
6358;SDS011;3212;51.460;11.868;2023-04-25T15:58:44;4.70;;;1.70;;
6358;SDS011;3212;51.460;11.868;2023-04-25T16:02:06;6.23;;;1.80;;
6358;SDS011;3212;51.460;11.868;2023-04-25T16:09:07;7.43;;;2.03;;
6358;SDS011;3212;51.460;11.868;2023-04-25T16:12:29;3.55;;;1.77;;
6358;SDS011;3212;51.460;11.868;2023-04-25T16:15:51;6.70;;;1.52;;
6358;SDS011;3212;51.460;11.868;2023-04-25T16:19:13;4.27;;;1.77;;
6358;SDS011;3212;51.460;11.868;2023-04-25T16:22:35;3.80;;;1.77;;
6358;SDS011;3212;51.460;11.868;2023-04-25T16:25:56;4.60;;;1.90;;
6358;SDS011;3212;51.460;11.868;2023-04-25T16:29:18;4.20;;;1.57;;
6358;SDS011;3212;51.460;11.868;2023-04-25T16:32:40;4.23;;;1.63;;
6358;SDS011;3212;51.460;11.868;2023-04-25T16:36:02;6.87;;;1.90;;
6358;SDS011;3212;51.460;11.868;2023-04-25T16:39:24;11.43;;;1.97;;
6358;SDS011;3212;51.460;11.868;2023-04-25T16:42:47;6.97;;;1.30;;
6358;SDS011;3212;51.460;11.868;2023-04-25T16:46:08;6.50;;;1.70;;
6358;SDS011;3212;51.460;11.868;2023-04-25T16:49:30;3.27;;;1.43;;
6358;SDS011;3212;51.460;11.868;2023-04-25T16:52:52;6.30;;;1.50;;
6358;SDS011;3212;51.460;11.868;2023-04-25T16:56:14;3.13;;;1.30;;
6358;SDS011;3212;51.460;11.868;2023-04-25T16:59:37;3.23;;;1.33;;
6358;SDS011;3212;51.460;11.868;2023-04-25T17:02:59;3.70;;;1.50;;
6358;SDS011;3212;51.460;11.868;2023-04-25T17:06:21;7.00;;;1.70;;
6358;SDS011;3212;51.460;11.868;2023-04-25T17:09:43;3.43;;;1.20;;
6358;SDS011;3212;51.460;11.868;2023-04-25T17:13:05;4.00;;;1.43;;
6358;SDS011;3212;51.460;11.868;2023-04-25T17:16:33;1.70;;;1.30;;
6358;SDS011;3212;51.460;11.868;2023-04-25T17:19:57;2.50;;;1.60;;
6358;SDS011;3212;51.460;11.868;2023-04-25T17:23:19;2.00;;;1.70;;
6358;SDS011;3212;51.460;11.868;2023-04-25T17:26:41;1.87;;;1.50;;
6358;SDS011;3212;51.460;11.868;2023-04-25T17:30:03;2.77;;;1.30;;
6358;SDS011;3212;51.460;11.868;2023-04-25T17:33:25;3.47;;;1.13;;
6358;SDS011;3212;51.460;11.868;2023-04-25T17:36:47;2.80;;;1.30;;
6358;SDS011;3212;51.460;11.868;2023-04-25T17:40:10;2.50;;;1.30;;
6358;SDS011;3212;51.460;11.868;2023-04-25T17:43:31;6.27;;;1.20;;
6358;SDS011;3212;51.460;11.868;2023-04-25T17:46:53;3.13;;;1.27;;
6358;SDS011;3212;51.460;11.868;2023-04-25T17:50:16;2.80;;;1.10;;
6358;SDS011;3212;51.460;11.868;2023-04-25T17:53:38;2.13;;;1.33;;
6358;SDS011;3212;51.460;11.868;2023-04-25T17:57:00;5.07;;;1.30;;
6358;SDS011;3212;51.460;11.868;2023-04-25T18:00:21;2.93;;;1.43;;
6358;SDS011;3212;51.460;11.868;2023-04-25T18:03:43;2.30;;;1.20;;
6358;SDS011;3212;51.460;11.868;2023-04-25T18:07:06;4.37;;;1.30;;
6358;SDS011;3212;51.460;11.868;2023-04-25T18:10:29;1.23;;;1.13;;
6358;SDS011;3212;51.460;11.868;2023-04-25T18:13:51;1.53;;;1.07;;
6358;SDS011;3212;51.460;11.868;2023-04-25T18:17:12;2.87;;;1.23;;
6358;SDS011;3212;51.460;11.868;2023-04-25T18:20:34;2.97;;;1.23;;
6358;SDS011;3212;51.460;11.868;2023-04-25T18:23:56;1.40;;;1.30;;
6358;SDS011;3212;51.460;11.868;2023-04-25T18:27:18;3.47;;;1.10;;
6358;SDS011;3212;51.460;11.868;2023-04-25T18:30:40;4.20;;;1.40;;
6358;SDS011;3212;51.460;11.868;2023-04-25T18:34:03;8.73;;;1.90;;
6358;SDS011;3212;51.460;11.868;2023-04-25T18:37:24;4.20;;;1.70;;
6358;SDS011;3212;51.460;11.868;2023-04-25T18:40:46;2.73;;;1.40;;
6358;SDS011;3212;51.460;11.868;2023-04-25T18:44:08;5.50;;;1.63;;
6358;SDS011;3212;51.460;11.868;2023-04-25T18:47:30;2.93;;;1.50;;
6358;SDS011;3212;51.460;11.868;2023-04-25T18:50:52;3.43;;;1.40;;
6358;SDS011;3212;51.460;11.868;2023-04-25T18:54:14;2.73;;;1.30;;
6358;SDS011;3212;51.460;11.868;2023-04-25T18:57:36;2.07;;;1.50;;
6358;SDS011;3212;51.460;11.868;2023-04-25T19:00:58;1.83;;;1.27;;
6358;SDS011;3212;51.460;11.868;2023-04-25T19:04:21;2.60;;;1.67;;
6358;SDS011;3212;51.460;11.868;2023-04-25T19:07:43;2.87;;;1.47;;
6358;SDS011;3212;51.460;11.868;2023-04-25T19:11:04;5.63;;;1.50;;
6358;SDS011;3212;51.460;11.868;2023-04-25T19:14:27;2.33;;;1.20;;
6358;SDS011;3212;51.460;11.868;2023-04-25T19:17:49;1.52;;;1.20;;
6358;SDS011;3212;51.460;11.868;2023-04-25T19:21:11;2.17;;;1.60;;
6358;SDS011;3212;51.460;11.868;2023-04-25T19:24:32;3.10;;;1.70;;
6358;SDS011;3212;51.460;11.868;2023-04-25T19:27:54;2.03;;;1.63;;
6358;SDS011;3212;51.460;11.868;2023-04-25T19:31:19;3.90;;;1.63;;
6358;SDS011;3212;51.460;11.868;2023-04-25T19:34:42;4.87;;;1.90;;
6358;SDS011;3212;51.460;11.868;2023-04-25T19:38:03;1.60;;;1.50;;
6358;SDS011;3212;51.460;11.868;2023-04-25T19:41:25;4.40;;;1.60;;
6358;SDS011;3212;51.460;11.868;2023-04-25T19:44:47;5.07;;;1.77;;
6358;SDS011;3212;51.460;11.868;2023-04-25T19:48:10;3.00;;;1.83;;
6358;SDS011;3212;51.460;11.868;2023-04-25T19:51:32;4.30;;;1.80;;
6358;SDS011;3212;51.460;11.868;2023-04-25T19:54:53;1.67;;;1.53;;
6358;SDS011;3212;51.460;11.868;2023-04-25T19:58:17;2.90;;;1.92;;
6358;SDS011;3212;51.460;11.868;2023-04-25T20:01:39;3.87;;;1.83;;
6358;SDS011;3212;51.460;11.868;2023-04-25T20:05:01;3.00;;;1.70;;
6358;SDS011;3212;51.460;11.868;2023-04-25T20:08:23;2.63;;;2.13;;
6358;SDS011;3212;51.460;11.868;2023-04-25T20:11:45;3.80;;;2.30;;
6358;SDS011;3212;51.460;11.868;2023-04-25T20:15:07;3.70;;;2.10;;
6358;SDS011;3212;51.460;11.868;2023-04-25T20:18:29;7.63;;;2.20;;
6358;SDS011;3212;51.460;11.868;2023-04-25T20:21:51;3.53;;;1.67;;
6358;SDS011;3212;51.460;11.868;2023-04-25T20:25:14;2.50;;;1.53;;
6358;SDS011;3212;51.460;11.868;2023-04-25T20:28:36;4.10;;;1.50;;
6358;SDS011;3212;51.460;11.868;2023-04-25T20:31:57;2.80;;;1.60;;
6358;SDS011;3212;51.460;11.868;2023-04-25T20:35:19;2.47;;;1.53;;
6358;SDS011;3212;51.460;11.868;2023-04-25T20:38:41;1.97;;;1.60;;